»·PEaware :: N137AL KSBP-KSMX

N137AL :: KSBP-KSMX

FLIGHT INFORMATION

Flight Status: Arrived
Operator: Privately registered:
United States
More flights under this callsign
Pilot: Aaron K. (32509)
Aircraft: CESSNA 172 SKYHAWK
(C172)
More flights by this aircraft type
Origin: KSBP San Luis Co Regl
United States
Destination: KSMX Santa Maria Pub/Capt Hancock
United States
More flights between these airports :: More routes between these airports
Route:
File this flight plan on PilotEdge
Remarks:
Altitude:
(Current/Filed)
2,500ft
Speed:
(Current/Filed)
110kts
Departed: 10-Jan-21 12:26 PM
Arrived: 10-Jan-21 12:44 PM
Distance/Time
Traveled:
23nm/0:18
Distance/Time
To Go:
Arrived

Flight Plot

Page will automatically refresh every two minutes.


Map Options




Map Legend


Flown Route
Filed Route
Departure Airport
Arrival Airport
Navaid (VOR, NDB)
Fix

Horizontal Profiles

Position Reports

Time Latitude Longitude Heading Altitude Ground
Speed
10-Jan-21 11:42 35.234208 -120.632869 306 216ft 0kts
10-Jan-21 11:43 35.234208 -120.632869 306 216ft 0kts
10-Jan-21 11:44 35.234208 -120.632869 306 216ft 0kts
10-Jan-21 11:45 35.234208 -120.632869 306 216ft 0kts
10-Jan-21 11:46 35.234208 -120.632869 306 216ft 0kts
10-Jan-21 11:47 35.234208 -120.632869 306 216ft 0kts
10-Jan-21 11:48 35.234208 -120.632869 306 216ft 0kts
10-Jan-21 11:49 35.234208 -120.632869 306 216ft 0kts
10-Jan-21 11:50 35.234208 -120.632869 306 216ft 0kts
10-Jan-21 11:51 35.234208 -120.632869 306 216ft 0kts
10-Jan-21 11:52 35.234208 -120.632869 306 216ft 0kts
10-Jan-21 11:53 35.234208 -120.632869 306 216ft 0kts
10-Jan-21 11:54 35.234208 -120.632870 306 216ft 0kts
10-Jan-21 11:55 35.234208 -120.632870 306 216ft 0kts
10-Jan-21 11:56 35.234208 -120.632870 306 216ft 0kts
10-Jan-21 11:57 35.234208 -120.632870 306 216ft 0kts
10-Jan-21 11:58 35.234208 -120.632870 306 216ft 0kts
10-Jan-21 11:59 35.234208 -120.632870 306 216ft 0kts
10-Jan-21 12:00 35.234208 -120.632870 306 216ft 0kts
10-Jan-21 12:01 35.234208 -120.632870 306 216ft 0kts
10-Jan-21 12:02 35.234208 -120.632870 306 216ft 0kts
10-Jan-21 12:03 35.234208 -120.632870 306 216ft 0kts
10-Jan-21 12:04 35.234208 -120.632870 306 216ft 0kts
10-Jan-21 12:05 35.234208 -120.632870 306 216ft 0kts
10-Jan-21 12:06 35.234208 -120.632870 306 216ft 0kts
10-Jan-21 12:07 35.234208 -120.632870 306 216ft 0kts
10-Jan-21 12:08 35.234208 -120.632870 306 216ft 0kts
10-Jan-21 12:09 35.234208 -120.632870 306 216ft 0kts
10-Jan-21 12:10 35.234208 -120.632870 306 216ft 0kts
10-Jan-21 12:11 35.234208 -120.632869 306 216ft 0kts
10-Jan-21 12:12 35.234208 -120.632869 306 216ft 0kts
10-Jan-21 12:13 35.234208 -120.632870 306 216ft 0kts
10-Jan-21 12:14 35.234208 -120.632870 306 216ft 0kts
10-Jan-21 12:15 35.234208 -120.632870 306 216ft 0kts
10-Jan-21 12:16 35.234208 -120.632870 306 216ft 0kts
10-Jan-21 12:17 35.234208 -120.632870 306 216ft 0kts
10-Jan-21 12:18 35.234208 -120.632870 306 216ft 0kts
10-Jan-21 12:19 35.234208 -120.632870 306 216ft 0kts
10-Jan-21 12:21 35.234208 -120.632870 306 216ft 0kts
10-Jan-21 12:22 35.234208 -120.632870 306 216ft 0kts
10-Jan-21 12:23 35.234210 -120.632876 289 216ft 0kts
10-Jan-21 12:24 35.233992 -120.633217 126 216ft 7kts
10-Jan-21 12:25 35.233214 -120.632333 206 216ft 0kts
10-Jan-21 12:26 35.239189 -120.643669 279 617ft 74kts
10-Jan-21 12:27 35.219624 -120.636275 168 1593ft 82kts
10-Jan-21 12:28 35.196715 -120.633405 182 2307ft 81kts
10-Jan-21 12:29 35.172716 -120.633509 159 2411ft 94kts
10-Jan-21 12:30 35.149163 -120.621350 149 2338ft 82kts
10-Jan-21 12:31 35.128368 -120.613296 157 2175ft 75kts
10-Jan-21 12:32 35.108488 -120.599039 148 2326ft 88kts
10-Jan-21 12:33 35.087286 -120.583436 148 2343ft 91kts
10-Jan-21 12:34 35.064442 -120.566548 148 2099ft 104kts
10-Jan-21 12:34 35.045455 -120.552411 147 1559ft 89kts
10-Jan-21 12:36 35.020038 -120.533281 147 1346ft 92kts
10-Jan-21 12:37 34.997587 -120.513828 145 1391ft 108kts
10-Jan-21 12:37 34.975121 -120.495698 147 1157ft 121kts
10-Jan-21 12:38 34.948445 -120.475682 147 1281ft 106kts
10-Jan-21 12:39 34.923068 -120.456369 147 1277ft 104kts
10-Jan-21 12:40 34.900697 -120.434731 139 1147ft 87kts
10-Jan-21 12:41 34.883766 -120.427519 251 930ft 70kts
10-Jan-21 12:42 34.893821 -120.447069 315 269ft 46kts
10-Jan-21 12:43 34.897805 -120.450282 358 265ft 0kts
10-Jan-21 12:44 34.897647 -120.449181 135 265ft 23kts
10-Jan-21 12:45 34.897064 -120.446542 121 265ft 0kts
10-Jan-21 12:46 34.897064 -120.446542 121 265ft 0kts
10-Jan-21 12:47 34.897064 -120.446542 121 265ft 0kts
10-Jan-21 12:48 34.897064 -120.446542 121 265ft 0kts
10-Jan-21 12:49 34.897064 -120.446542 121 265ft 0kts
10-Jan-21 12:50 34.897064 -120.446542 121 265ft 0kts
10-Jan-21 12:51 34.897064 -120.446542 121 265ft 0kts

Navigation Log

Ident Type
Flight plan parsing failed, navigation log unavailable